Time;durP1;ratioP1;P1;durP2;ratioP2;P2;SDS_P1;SDS_P2;PMS_P1;PMS_P2;Temp;Humidity;BMP_temperature;BMP_pressure;BME280_temperature;BME280_humidity;BME280_pressure;Samples;Min_cycle;Max_cycle;Signal;HPM_P1;HPM_P2
2023/08/31 00:00:41;;;;;;;2.73;2.13;;;22.20;58.70;;;;;;5010626;28;20449;-44
2023/08/31 00:03:07;;;;;;;2.47;2.10;;;22.10;58.90;;;;;;5003861;28;20479;-47
2023/08/31 00:05:32;;;;;;;2.57;2.03;;;21.90;59.30;;;;;;5011362;28;20473;-44
2023/08/31 00:07:58;;;;;;;7.10;2.80;;;21.90;59.60;;;;;;5001764;28;20208;-43
2023/08/31 00:10:23;;;;;;;2.47;2.07;;;21.80;60.00;;;;;;5013020;28;20584;-46
2023/08/31 00:12:49;;;;;;;2.67;2.47;;;21.80;60.20;;;;;;5011789;28;20284;-48
2023/08/31 00:15:15;;;;;;;3.93;2.27;;;21.80;60.40;;;;;;5004129;28;20195;-48
2023/08/31 00:17:41;;;;;;;1.90;1.80;;;21.70;60.30;;;;;;5013699;28;20476;-44
2023/08/31 00:20:11;;;;;;;3.30;1.60;;;21.70;60.50;;;;;;5004744;28;20202;-46
2023/08/31 00:22:37;;;;;;;3.50;2.40;;;21.70;60.50;;;;;;5013653;28;20271;-48
2023/08/31 00:25:05;;;;;;;4.47;2.50;;;21.70;60.60;;;;;;5004956;28;20448;-44
2023/08/31 00:27:31;;;;;;;2.70;2.50;;;21.60;60.90;;;;;;5011201;28;20935;-49
2023/08/31 00:29:57;;;;;;;3.47;2.07;;;21.70;61.00;;;;;;5013537;28;20441;-45
2023/08/31 00:32:23;;;;;;;2.73;2.50;;;21.60;60.80;;;;;;5013833;28;20277;-45
2023/08/31 00:34:49;;;;;;;3.77;2.10;;;21.60;61.10;;;;;;5004931;28;20524;-46
2023/08/31 00:37:15;;;;;;;3.50;2.23;;;21.60;61.60;;;;;;5009535;28;20256;-46
2023/08/31 00:39:40;;;;;;;2.40;2.20;;;21.50;62.70;;;;;;5012890;28;20485;-44
2023/08/31 00:42:06;;;;;;;3.00;1.93;;;21.50;61.90;;;;;;5013913;28;20194;-45
2023/08/31 00:44:31;;;;;;;3.00;2.37;;;21.50;61.70;;;;;;5010804;28;20198;-47
2023/08/31 00:46:57;;;;;;;2.70;2.23;;;21.50;61.60;;;;;;5011938;28;20190;-48
2023/08/31 00:49:23;;;;;;;4.23;2.67;;;21.50;62.20;;;;;;5010491;28;20587;-44
2023/08/31 00:51:50;;;;;;;4.03;2.20;;;21.50;61.40;;;;;;5003486;28;20567;-45
2023/08/31 00:54:21;;;;;;;2.50;2.30;;;21.50;61.20;;;;;;5001932;28;20441;-44
2023/08/31 00:56:51;;;;;;;2.40;2.07;;;21.50;60.90;;;;;;5005193;28;22775;-45
2023/08/31 00:59:17;;;;;;;3.60;2.20;;;21.50;60.80;;;;;;5011727;28;20584;-45
2023/08/31 01:02:15;;;;;;;2.90;2.50;;;21.50;62.40;;;;;;5004828;28;20529;-46
2023/08/31 01:04:52;;;;;;;4.97;1.90;;;21.60;63.10;;;;;;4998930;28;20206;-46
2023/08/31 01:07:56;;;;;;;2.33;1.97;;;21.80;62.90;;;;;;5007279;28;20440;-47
2023/08/31 01:10:43;;;;;;;2.20;2.00;;;21.90;62.30;;;;;;4984225;28;20457;-44
2023/08/31 01:13:13;;;;;;;4.90;1.60;;;22.00;61.70;;;;;;5011890;28;20449;-45
2023/08/31 01:15:44;;;;;;;3.57;2.17;;;22.10;60.90;;;;;;5011024;28;20445;-47
2023/08/31 01:18:11;;;;;;;2.90;1.83;;;22.10;60.60;;;;;;5000574;28;20524;-44
2023/08/31 01:20:51;;;;;;;2.53;1.80;;;22.10;59.30;;;;;;5004202;28;20461;-44
2023/08/31 01:23:19;;;;;;;2.27;1.70;;;22.10;59.40;;;;;;5005662;28;20805;-48
2023/08/31 01:25:48;;;;;;;2.10;2.00;;;22.10;59.00;;;;;;5004553;28;20475;-46
2023/08/31 01:28:13;;;;;;;4.90;2.13;;;22.10;59.60;;;;;;5006918;28;20530;-45
2023/08/31 01:30:39;;;;;;;2.73;1.90;;;22.10;59.40;;;;;;5002831;28;20811;-44
2023/08/31 01:33:04;;;;;;;2.10;1.90;;;22.20;59.50;;;;;;5000662;28;20390;-44
2023/08/31 01:35:43;;;;;;;3.20;2.07;;;22.20;59.70;;;;;;5003442;28;20202;-46
2023/08/31 01:38:11;;;;;;;1.97;1.70;;;22.30;60.70;;;;;;5002967;28;20233;-51
2023/08/31 01:40:52;;;;;;;3.40;2.00;;;22.40;59.80;;;;;;5003806;28;21833;-50
2023/08/31 01:43:18;;;;;;;2.37;2.07;;;22.40;59.30;;;;;;5000893;28;20967;-50
2023/08/31 01:50:34;;;;;;;2.40;1.97;;;22.40;57.50;;;;;;5001053;28;20540;-47
2023/08/31 01:53:00;;;;;;;2.70;2.20;;;22.30;57.30;;;;;;5004797;28;20236;-48
2023/08/31 01:55:25;;;;;;;3.00;1.80;;;22.20;57.40;;;;;;5004988;28;20267;-48
2023/08/31 01:57:51;;;;;;;2.10;1.90;;;22.10;57.60;;;;;;4999911;28;20300;-48
2023/08/31 02:00:18;;;;;;;4.93;2.37;;;22.10;57.60;;;;;;5007236;28;20205;-48
2023/08/31 02:02:44;;;;;;;3.20;2.10;;;22.00;57.70;;;;;;5008947;28;20186;-49
2023/08/31 02:05:09;;;;;;;2.13;2.00;;;21.90;57.90;;;;;;5007385;28;20487;-46
2023/08/31 02:07:35;;;;;;;3.73;2.60;;;21.80;57.50;;;;;;5012384;28;20205;-48
2023/08/31 02:10:01;;;;;;;4.17;2.50;;;21.60;57.50;;;;;;5012105;28;20281;-48
2023/08/31 02:12:27;;;;;;;3.13;2.20;;;21.50;57.90;;;;;;5011224;28;21724;-45
2023/08/31 02:14:52;;;;;;;4.53;2.10;;;21.40;58.00;;;;;;5009185;28;21246;-48
2023/08/31 02:17:18;;;;;;;2.67;2.47;;;21.40;58.20;;;;;;5007250;28;20193;-49
2023/08/31 02:19:43;;;;;;;4.53;2.63;;;21.30;58.30;;;;;;5009577;28;20352;-50
2023/08/31 02:22:09;;;;;;;5.93;2.20;;;21.30;58.30;;;;;;4999732;28;20190;-48
2023/08/31 02:24:34;;;;;;;2.47;2.23;;;21.40;58.40;;;;;;5010921;28;20193;-44
2023/08/31 02:27:00;;;;;;;2.37;2.17;;;21.40;58.60;;;;;;5002288;28;20273;-46
2023/08/31 02:29:26;;;;;;;3.07;2.20;;;21.40;58.60;;;;;;5000978;28;20197;-48
2023/08/31 02:31:51;;;;;;;3.00;2.20;;;21.50;58.70;;;;;;5005269;28;20297;-50
2023/08/31 02:34:17;;;;;;;3.00;2.00;;;21.50;58.90;;;;;;5010522;28;20174;-49
2023/08/31 02:36:42;;;;;;;3.77;2.00;;;21.40;58.90;;;;;;4998568;28;20205;-45
2023/08/31 02:39:08;;;;;;;2.93;2.57;;;21.40;58.80;;;;;;5008707;28;20232;-45
2023/08/31 02:41:34;;;;;;;2.40;2.10;;;21.30;58.80;;;;;;5010697;28;20205;-47
2023/08/31 02:44:00;;;;;;;2.60;2.30;;;21.30;58.90;;;;;;5009724;28;20190;-47
2023/08/31 02:46:25;;;;;;;2.50;2.30;;;21.20;59.00;;;;;;5005837;28;20190;-45
2023/08/31 02:48:51;;;;;;;2.97;2.60;;;21.20;59.30;;;;;;5005239;28;20209;-44
2023/08/31 02:51:16;;;;;;;3.73;1.83;;;21.30;59.40;;;;;;5007537;28;20255;-45
2023/08/31 02:53:42;;;;;;;2.50;2.30;;;21.30;59.40;;;;;;5004398;28;20186;-48
2023/08/31 02:56:07;;;;;;;2.80;2.30;;;21.30;59.20;;;;;;5007307;28;20186;-50
2023/08/31 02:58:33;;;;;;;3.20;1.97;;;21.20;59.20;;;;;;5008013;28;20669;-46
2023/08/31 03:01:12;;;;;;;2.37;2.17;;;21.20;59.30;;;;;;5008045;28;20692;-44
2023/08/31 03:03:39;;;;;;;6.70;2.17;;;21.10;59.50;;;;;;5000038;28;20281;-44
2023/08/31 03:06:09;;;;;;;3.33;2.73;;;20.90;59.80;;;;;;5004677;28;20877;-44
2023/08/31 03:08:36;;;;;;;2.00;1.90;;;20.70;59.80;;;;;;5007146;28;20467;-45
2023/08/31 03:11:02;;;;;;;2.70;2.00;;;20.50;60.90;;;;;;4999311;28;20935;-44
2023/08/31 03:13:28;;;;;;;2.70;2.43;;;20.50;61.80;;;;;;5002922;28;20928;-47
2023/08/31 03:15:54;;;;;;;3.17;2.40;;;20.50;61.70;;;;;;5005891;28;20437;-45
2023/08/31 03:18:19;;;;;;;4.20;2.17;;;20.50;61.30;;;;;;5005156;28;20225;-44
2023/08/31 03:20:45;;;;;;;4.47;2.50;;;20.50;61.20;;;;;;5009838;28;20198;-46
2023/08/31 03:23:11;;;;;;;3.00;2.53;;;20.50;61.30;;;;;;5004273;28;20641;-44
2023/08/31 03:25:36;;;;;;;3.90;2.47;;;20.40;61.40;;;;;;5005451;28;20285;-45
2023/08/31 03:28:03;;;;;;;3.43;2.53;;;20.40;61.80;;;;;;5002860;28;20197;-45
2023/08/31 03:30:28;;;;;;;2.57;2.17;;;20.50;61.80;;;;;;5009028;28;20194;-44
2023/08/31 03:32:54;;;;;;;6.30;2.27;;;20.40;61.50;;;;;;5004155;28;20726;-44
2023/08/31 03:35:21;;;;;;;2.23;2.03;;;20.40;61.60;;;;;;5004407;28;20229;-44
2023/08/31 03:37:49;;;;;;;2.10;2.00;;;20.40;61.70;;;;;;5004552;28;20197;-46
2023/08/31 03:40:15;;;;;;;2.73;2.53;;;20.40;62.20;;;;;;5004193;28;20523;-46
2023/08/31 03:42:40;;;;;;;4.13;2.37;;;20.40;62.00;;;;;;5011833;28;20524;-46
2023/08/31 03:45:06;;;;;;;5.30;1.87;;;20.30;61.90;;;;;;5005484;28;20280;-44
2023/08/31 03:47:32;;;;;;;2.97;2.10;;;20.30;61.70;;;;;;5005875;28;20206;-45
2023/08/31 03:49:57;;;;;;;3.20;1.90;;;20.30;61.70;;;;;;5009006;28;20807;-45
2023/08/31 03:52:23;;;;;;;3.37;1.97;;;20.40;61.90;;;;;;5005288;28;20202;-44
2023/08/31 03:54:49;;;;;;;1.87;1.67;;;20.50;62.70;;;;;;5004152;28;20606;-47
2023/08/31 03:57:15;;;;;;;4.30;2.37;;;20.60;62.30;;;;;;5001648;28;20201;-46
2023/08/31 03:59:40;;;;;;;2.77;1.80;;;20.70;61.70;;;;;;5010761;28;20496;-45
2023/08/31 04:02:06;;;;;;;2.50;1.97;;;20.80;61.70;;;;;;5014491;28;20190;-44
2023/08/31 04:04:32;;;;;;;3.10;2.20;;;20.90;61.30;;;;;;5011239;28;20558;-45
2023/08/31 04:06:58;;;;;;;3.70;3.03;;;20.90;60.80;;;;;;5014414;28;20234;-49
2023/08/31 04:09:23;;;;;;;3.30;3.00;;;20.90;60.70;;;;;;5010211;28;20278;-46
2023/08/31 04:11:49;;;;;;;2.27;2.07;;;20.80;60.60;;;;;;5011097;28;20453;-44
2023/08/31 04:14:14;;;;;;;3.20;2.30;;;20.70;60.70;;;;;;5013742;28;20190;-45
2023/08/31 04:16:40;;;;;;;2.30;2.10;;;20.70;61.10;;;;;;5014399;28;20268;-44
2023/08/31 04:19:05;;;;;;;7.90;2.40;;;20.70;61.00;;;;;;5007195;28;20229;-48
2023/08/31 04:21:31;;;;;;;2.80;2.50;;;20.70;61.10;;;;;;5004367;28;20201;-47
2023/08/31 04:23:59;;;;;;;5.53;2.10;;;20.70;60.90;;;;;;5010299;28;20198;-45
2023/08/31 04:26:25;;;;;;;2.13;1.90;;;20.70;60.10;;;;;;5010186;28;20209;-48
2023/08/31 04:28:50;;;;;;;2.40;2.20;;;20.60;59.80;;;;;;5011998;28;20781;-44
2023/08/31 04:31:16;;;;;;;2.70;2.03;;;20.50;59.90;;;;;;5005178;28;20190;-44
2023/08/31 04:33:41;;;;;;;3.83;2.47;;;20.50;60.10;;;;;;5005059;28;20201;-45
2023/08/31 04:36:07;;;;;;;2.77;2.50;;;20.30;60.00;;;;;;5006019;28;20198;-44
2023/08/31 04:38:34;;;;;;;3.60;2.47;;;20.30;60.10;;;;;;5003914;28;20249;-46
2023/08/31 04:41:00;;;;;;;6.10;2.30;;;20.20;60.40;;;;;;5011050;28;20201;-46
2023/08/31 04:43:27;;;;;;;2.60;2.40;;;20.10;60.60;;;;;;5013919;28;20429;-48
2023/08/31 04:45:53;;;;;;;4.33;2.73;;;19.90;60.90;;;;;;5013344;28;20884;-45
2023/08/31 04:48:19;;;;;;;4.93;2.60;;;19.90;61.50;;;;;;5014115;28;20432;-44
2023/08/31 04:50:44;;;;;;;5.33;2.90;;;19.80;61.70;;;;;;5008338;28;20433;-45
2023/08/31 04:53:10;;;;;;;5.53;3.10;;;19.80;61.80;;;;;;5003956;28;20198;-44
2023/08/31 04:55:35;;;;;;;2.93;2.37;;;19.80;61.90;;;;;;5003063;28;20252;-46
2023/08/31 04:58:01;;;;;;;8.53;3.40;;;19.70;62.10;;;;;;5009784;28;20602;-48
2023/08/31 05:00:27;;;;;;;5.03;2.90;;;19.70;62.60;;;;;;5007490;28;20281;-46
2023/08/31 05:02:52;;;;;;;4.93;2.87;;;19.60;62.60;;;;;;5002412;28;20194;-47
2023/08/31 05:05:20;;;;;;;2.70;2.50;;;19.60;62.70;;;;;;5002794;28;20253;-47
2023/08/31 05:07:46;;;;;;;7.30;2.70;;;19.60;62.70;;;;;;5002883;28;20198;-48
2023/08/31 05:10:12;;;;;;;4.23;2.77;;;19.60;62.80;;;;;;5004512;28;20464;-48
2023/08/31 05:12:37;;;;;;;2.77;2.53;;;19.50;62.50;;;;;;5006336;28;20240;-46
2023/08/31 05:15:04;;;;;;;5.00;2.40;;;19.50;62.50;;;;;;5006156;28;20197;-49
2023/08/31 05:17:30;;;;;;;4.73;2.60;;;19.60;62.70;;;;;;5008462;28;20198;-50
2023/08/31 05:19:55;;;;;;;4.60;3.00;;;19.60;62.80;;;;;;4998218;28;20480;-49
2023/08/31 05:22:22;;;;;;;3.40;3.10;;;19.60;62.80;;;;;;5002220;28;20452;-51
2023/08/31 05:24:47;;;;;;;11.53;3.17;;;19.60;62.70;;;;;;5003541;28;20194;-47
2023/08/31 05:27:13;;;;;;;9.03;2.77;;;19.50;63.60;;;;;;5004159;28;20450;-45
2023/08/31 05:29:38;;;;;;;6.00;3.20;;;19.60;65.60;;;;;;5001246;28;20290;-46
2023/08/31 05:32:04;;;;;;;5.63;2.70;;;19.60;63.80;;;;;;5003518;28;20194;-47
2023/08/31 05:34:32;;;;;;;12.63;3.13;;;19.60;63.90;;;;;;5006099;28;20299;-45
2023/08/31 05:36:58;;;;;;;5.00;2.30;;;19.70;63.70;;;;;;5005777;28;20657;-45
2023/08/31 05:39:23;;;;;;;4.57;2.47;;;19.80;63.70;;;;;;5004791;28;20499;-45
2023/08/31 05:41:49;;;;;;;2.00;1.90;;;19.90;62.80;;;;;;5003572;28;20227;-45
2023/08/31 05:44:15;;;;;;;5.77;2.10;;;19.90;62.00;;;;;;5003207;28;20202;-46
2023/08/31 05:46:40;;;;;;;6.57;3.13;;;19.90;62.20;;;;;;5004490;28;20209;-49
2023/08/31 05:49:07;;;;;;;3.77;2.27;;;19.90;62.20;;;;;;5000404;28;20565;-45
2023/08/31 05:51:32;;;;;;;4.20;2.37;;;19.90;61.70;;;;;;5005920;28;20460;-47
2023/08/31 05:53:58;;;;;;;5.13;2.67;;;19.90;61.80;;;;;;5007443;28;20486;-46
2023/08/31 05:56:24;;;;;;;5.33;2.77;;;20.00;61.70;;;;;;5009595;28;20197;-44
2023/08/31 05:58:50;;;;;;;4.37;2.50;;;20.00;61.40;;;;;;5005178;28;21625;-46
2023/08/31 06:01:16;;;;;;;4.93;2.23;;;20.00;61.50;;;;;;5005935;28;20642;-45
2023/08/31 06:03:41;;;;;;;3.63;2.40;;;20.00;61.80;;;;;;5002401;28;20448;-45
2023/08/31 06:06:07;;;;;;;2.67;2.47;;;20.00;61.50;;;;;;5005447;28;20230;-47
2023/08/31 06:08:33;;;;;;;3.67;2.40;;;20.10;61.80;;;;;;5007820;28;20198;-45
2023/08/31 06:10:58;;;;;;;4.47;2.20;;;20.20;61.70;;;;;;5009587;28;20237;-48
2023/08/31 06:13:24;;;;;;;5.10;2.07;;;20.30;61.30;;;;;;5010766;28;20209;-45
2023/08/31 06:15:50;;;;;;;2.40;2.03;;;20.40;61.20;;;;;;5008492;28;20190;-45
2023/08/31 06:18:15;;;;;;;3.27;2.23;;;20.60;61.20;;;;;;5008713;28;20225;-45
2023/08/31 06:20:41;;;;;;;4.23;2.40;;;20.70;60.80;;;;;;5011021;28;20251;-44
2023/08/31 06:23:07;;;;;;;2.50;2.30;;;20.80;60.50;;;;;;5005618;28;20201;-45
2023/08/31 06:25:32;;;;;;;1.87;1.77;;;20.90;60.30;;;;;;5010162;28;20198;-46
2023/08/31 06:27:58;;;;;;;2.40;2.10;;;20.90;60.20;;;;;;5008412;28;20220;-47
2023/08/31 06:30:24;;;;;;;2.90;2.03;;;21.00;60.10;;;;;;5009568;28;20202;-46
2023/08/31 06:32:50;;;;;;;2.20;2.03;;;21.10;60.10;;;;;;5001254;28;20249;-46
2023/08/31 06:35:16;;;;;;;3.67;2.43;;;21.20;60.20;;;;;;4999507;28;20450;-46
2023/08/31 06:37:42;;;;;;;2.87;1.67;;;21.30;60.00;;;;;;4997794;28;20198;-45
2023/08/31 06:40:09;;;;;;;3.03;2.10;;;21.40;59.80;;;;;;5004315;28;20472;-46
2023/08/31 06:42:35;;;;;;;3.47;2.37;;;21.40;59.40;;;;;;5004014;28;20450;-46
2023/08/31 06:45:03;;;;;;;6.47;2.10;;;21.40;59.10;;;;;;5003012;28;20444;-47
2023/08/31 06:47:28;;;;;;;6.30;3.10;;;21.40;58.70;;;;;;5002861;28;20508;-46
2023/08/31 06:49:54;;;;;;;3.37;2.00;;;21.40;58.30;;;;;;5005503;28;20437;-45
2023/08/31 06:52:20;;;;;;;5.10;3.33;;;21.20;58.40;;;;;;5002323;28;20198;-46
2023/08/31 06:54:45;;;;;;;6.03;1.93;;;21.10;58.60;;;;;;5000451;28;20198;-45
2023/08/31 06:57:11;;;;;;;4.07;2.60;;;20.90;59.10;;;;;;5000356;28;20190;-45
2023/08/31 06:59:36;;;;;;;5.53;2.63;;;20.90;59.00;;;;;;5007773;28;20311;-45
2023/08/31 07:02:02;;;;;;;3.37;2.20;;;20.90;59.10;;;;;;4999674;28;20646;-45
2023/08/31 07:04:28;;;;;;;5.23;2.77;;;20.90;59.30;;;;;;5006901;28;20204;-45
2023/08/31 07:06:53;;;;;;;4.33;2.80;;;20.80;59.50;;;;;;5005198;28;20279;-44
2023/08/31 07:09:22;;;;;;;3.77;2.40;;;20.90;59.80;;;;;;5007736;28;20201;-46
2023/08/31 07:11:47;;;;;;;2.70;2.50;;;20.90;59.70;;;;;;5001882;28;20194;-47
2023/08/31 07:14:13;;;;;;;3.40;2.20;;;21.00;59.60;;;;;;5000012;28;20450;-45
2023/08/31 07:16:39;;;;;;;3.20;2.53;;;20.90;59.50;;;;;;5008832;28;20289;-45
2023/08/31 07:19:04;;;;;;;3.63;2.50;;;21.00;59.40;;;;;;5012164;28;20640;-45
2023/08/31 07:21:30;;;;;;;3.93;2.20;;;21.10;59.10;;;;;;5009368;28;20239;-46
2023/08/31 07:23:57;;;;;;;3.97;2.73;;;21.10;58.80;;;;;;5010571;28;20192;-51
2023/08/31 07:26:22;;;;;;;2.67;2.00;;;21.20;58.20;;;;;;5010865;28;20288;-45
2023/08/31 07:28:48;;;;;;;3.53;2.13;;;21.30;58.00;;;;;;5012342;28;20527;-45
2023/08/31 07:31:15;;;;;;;2.87;2.20;;;21.40;57.60;;;;;;5004604;28;20479;-45
2023/08/31 07:33:41;;;;;;;5.90;2.07;;;21.10;57.20;;;;;;5011149;28;20470;-50
2023/08/31 07:36:06;;;;;;;3.77;3.07;;;21.00;58.10;;;;;;5013064;28;20548;-46
2023/08/31 07:38:39;;;;;;;3.53;2.43;;;21.00;57.90;;;;;;5003981;28;20230;-47
2023/08/31 07:41:04;;;;;;;7.80;2.50;;;20.90;57.10;;;;;;5013562;28;20186;-47
2023/08/31 07:43:30;;;;;;;2.40;2.20;;;20.90;57.90;;;;;;5014839;28;20436;-46
2023/08/31 07:45:56;;;;;;;6.93;2.40;;;20.90;57.80;;;;;;5012771;28;20194;-48
2023/08/31 07:48:23;;;;;;;3.23;2.00;;;21.10;57.90;;;;;;5010073;28;20236;-50
2023/08/31 07:50:49;;;;;;;4.53;2.70;;;21.10;57.70;;;;;;5005833;28;20444;-46
2023/08/31 07:53:14;;;;;;;2.10;1.90;;;21.20;57.60;;;;;;5013019;28;20579;-47
2023/08/31 07:55:40;;;;;;;2.90;1.70;;;21.30;57.10;;;;;;5007936;28;20658;-45
2023/08/31 07:58:06;;;;;;;3.70;2.47;;;21.50;57.20;;;;;;5007024;28;20214;-47
2023/08/31 08:00:32;;;;;;;4.00;2.57;;;21.60;57.10;;;;;;4997330;28;20280;-47
2023/08/31 08:02:57;;;;;;;3.23;2.30;;;21.70;57.00;;;;;;5006859;28;20543;-46
2023/08/31 08:05:23;;;;;;;4.60;2.43;;;21.80;56.00;;;;;;5008898;28;20701;-46
2023/08/31 08:07:49;;;;;;;7.03;2.10;;;22.00;56.10;;;;;;5009411;28;20190;-47
2023/08/31 08:10:14;;;;;;;3.60;2.40;;;22.20;55.30;;;;;;5007957;28;20202;-46
2023/08/31 08:12:43;;;;;;;3.90;2.37;;;22.40;54.00;;;;;;5007773;28;20205;-46
2023/08/31 08:15:09;;;;;;;3.53;2.10;;;22.50;53.40;;;;;;5007378;28;20185;-46
2023/08/31 08:17:34;;;;;;;3.00;2.30;;;22.20;47.90;;;;;;5000684;28;20444;-47
2023/08/31 08:20:00;;;;;;;3.30;2.53;;;21.80;48.70;;;;;;5011199;28;20233;-47
2023/08/31 08:22:26;;;;;;;2.83;2.40;;;21.80;49.60;;;;;;5008353;28;20259;-46
2023/08/31 08:24:51;;;;;;;3.10;1.90;;;22.00;49.70;;;;;;5002158;28;20356;-45
2023/08/31 08:27:20;;;;;;;3.90;2.10;;;22.40;50.10;;;;;;5005889;28;20588;-46
2023/08/31 08:29:46;;;;;;;5.17;2.40;;;22.80;49.30;;;;;;5009180;28;20197;-45
2023/08/31 08:32:12;;;;;;;5.47;2.63;;;22.80;46.80;;;;;;5008616;28;20449;-45
2023/08/31 08:34:37;;;;;;;3.47;2.03;;;22.70;45.00;;;;;;5012353;28;20467;-45
2023/08/31 08:37:03;;;;;;;3.33;2.23;;;22.60;45.20;;;;;;5007273;28;20213;-45
2023/08/31 08:39:29;;;;;;;2.20;1.73;;;22.80;46.30;;;;;;5003714;28;20384;-45
2023/08/31 08:42:02;;;;;;;3.20;2.17;;;23.00;46.40;;;;;;5014109;28;20194;-46
2023/08/31 08:44:32;;;;;;;5.37;2.57;;;22.80;46.30;;;;;;5009159;28;20447;-47
2023/08/31 08:47:00;;;;;;;7.93;2.20;;;22.80;45.20;;;;;;5011574;28;20524;-50
2023/08/31 08:49:26;;;;;;;3.50;1.80;;;22.50;44.40;;;;;;5013534;28;20918;-46
2023/08/31 08:51:53;;;;;;;5.00;2.40;;;22.30;44.90;;;;;;5009351;28;20437;-47
2023/08/31 08:54:19;;;;;;;2.47;2.27;;;22.20;46.30;;;;;;5009660;28;20445;-46
2023/08/31 08:56:45;;;;;;;5.10;2.43;;;21.90;46.60;;;;;;5010765;28;20936;-47
2023/08/31 08:59:13;;;;;;;3.63;2.30;;;21.80;48.00;;;;;;5009110;28;20485;-46
2023/08/31 09:01:39;;;;;;;3.70;2.00;;;21.70;48.40;;;;;;5007854;28;20270;-47
2023/08/31 09:04:06;;;;;;;4.20;2.17;;;21.60;49.10;;;;;;5014142;28;20779;-47
2023/08/31 09:06:32;;;;;;;2.40;1.80;;;21.80;49.50;;;;;;5005462;28;20507;-46
2023/08/31 09:08:58;;;;;;;3.40;1.70;;;21.80;48.20;;;;;;5004804;28;20441;-46
2023/08/31 09:11:24;;;;;;;2.70;1.60;;;22.00;48.10;;;;;;5008889;28;20437;-47
2023/08/31 09:13:50;;;;;;;3.80;2.27;;;22.00;48.00;;;;;;5001600;28;20657;-46
2023/08/31 09:16:30;;;;;;;5.77;2.10;;;22.10;49.30;;;;;;5006732;28;20537;-49
2023/08/31 09:18:56;;;;;;;5.23;2.30;;;22.40;48.00;;;;;;5003460;28;20494;-46
2023/08/31 09:21:34;;;;;;;4.63;2.20;;;22.30;47.60;;;;;;5008172;28;20453;-46
2023/08/31 09:23:59;;;;;;;4.63;2.63;;;22.40;47.80;;;;;;5012960;28;20432;-46
2023/08/31 09:26:25;;;;;;;4.03;1.90;;;22.50;49.10;;;;;;5008055;28;20996;-48
2023/08/31 09:28:51;;;;;;;3.87;2.47;;;22.40;48.00;;;;;;4995872;28;20590;-45
2023/08/31 09:31:17;;;;;;;3.07;1.77;;;22.40;49.60;;;;;;5012161;28;20244;-46
2023/08/31 09:33:53;;;;;;;2.27;2.00;;;22.50;50.60;;;;;;5013343;28;20936;-46
2023/08/31 09:36:23;;;;;;;4.57;2.47;;;22.60;50.00;;;;;;5007878;28;20247;-45
2023/08/31 09:38:49;;;;;;;2.77;2.00;;;22.70;49.40;;;;;;5002475;28;20484;-47
2023/08/31 09:41:15;;;;;;;3.43;2.33;;;22.80;49.70;;;;;;5008298;28;20448;-48
2023/08/31 09:43:43;;;;;;;2.27;1.87;;;22.70;49.00;;;;;;5011967;28;20556;-44
2023/08/31 09:46:10;;;;;;;2.83;2.23;;;22.60;49.50;;;;;;5006418;28;20473;-49
2023/08/31 09:48:38;;;;;;;4.00;2.57;;;22.70;48.70;;;;;;5002096;28;20448;-46
2023/08/31 09:51:09;;;;;;;4.33;2.20;;;22.70;49.00;;;;;;4994762;28;20477;-45
2023/08/31 09:53:37;;;;;;;3.00;2.20;;;22.70;48.50;;;;;;4990728;28;20964;-49
2023/08/31 09:56:05;;;;;;;4.10;2.10;;;22.70;48.90;;;;;;5006523;28;20483;-47
2023/08/31 09:58:31;;;;;;;3.90;2.27;;;22.60;47.30;;;;;;4997607;28;20488;-49
2023/08/31 10:00:57;;;;;;;4.83;2.50;;;22.60;47.10;;;;;;4995646;28;20443;-45
2023/08/31 10:03:24;;;;;;;6.70;2.27;;;22.60;46.00;;;;;;5005269;28;20492;-46
2023/08/31 10:05:50;;;;;;;2.57;1.87;;;22.80;45.80;;;;;;5004074;28;20924;-47
2023/08/31 10:08:17;;;;;;;6.00;2.37;;;22.70;45.20;;;;;;4999029;28;20539;-46
2023/08/31 10:10:43;;;;;;;3.20;2.03;;;22.40;45.30;;;;;;5010956;28;20595;-45
2023/08/31 10:13:10;;;;;;;3.70;2.40;;;22.60;46.00;;;;;;5006027;28;20927;-48
2023/08/31 10:15:36;;;;;;;1.93;1.80;;;22.70;45.00;;;;;;5010931;28;20445;-47
2023/08/31 10:18:03;;;;;;;5.60;2.73;;;22.40;43.70;;;;;;5005460;28;20867;-50
2023/08/31 10:20:33;;;;;;;2.77;1.90;;;22.20;43.50;;;;;;5008030;28;20544;-50
2023/08/31 10:23:09;;;;;;;3.07;1.87;;;22.40;43.60;;;;;;5008987;28;20452;-47
2023/08/31 10:25:49;;;;;;;3.43;2.63;;;22.70;43.90;;;;;;5011693;28;20432;-50
2023/08/31 10:28:30;;;;;;;2.70;1.90;;;23.10;43.70;;;;;;5003293;28;20449;-46
2023/08/31 10:31:20;;;;;;;3.97;1.90;;;23.30;43.90;;;;;;5004214;28;20444;-48
2023/08/31 10:33:54;;;;;;;3.27;1.87;;;23.60;44.30;;;;;;4999545;28;20448;-45
2023/08/31 10:36:20;;;;;;;4.10;1.80;;;23.60;42.00;;;;;;4996543;28;20453;-46
2023/08/31 10:38:58;;;;;;;2.27;1.70;;;23.60;41.10;;;;;;4999811;28;20489;-45
2023/08/31 10:41:24;;;;;;;2.93;1.90;;;23.70;42.00;;;;;;5004304;28;20535;-46
2023/08/31 10:43:57;;;;;;;2.37;2.17;;;23.60;41.80;;;;;;5004529;28;20456;-49
2023/08/31 10:46:30;;;;;;;2.57;2.00;;;23.40;42.90;;;;;;5001071;28;20866;-50
2023/08/31 10:49:08;;;;;;;5.13;2.23;;;23.60;42.60;;;;;;4992815;28;20447;-46
2023/08/31 10:51:34;;;;;;;2.33;1.80;;;23.10;41.60;;;;;;5014704;28;21205;-47
2023/08/31 10:54:13;;;;;;;4.63;2.00;;;23.00;42.60;;;;;;5014005;28;20440;-49
2023/08/31 10:57:08;;;;;;;3.00;2.20;;;23.10;41.70;;;;;;5008541;28;20607;-48
2023/08/31 10:59:52;;;;;;;3.03;2.27;;;22.90;42.30;;;;;;5006487;28;20516;-49
2023/08/31 11:02:37;;;;;;;3.37;1.77;;;23.10;43.00;;;;;;5012542;28;20436;-50
2023/08/31 11:05:07;;;;;;;2.33;2.07;;;23.40;43.80;;;;;;5002687;28;20556;-48
2023/08/31 11:07:35;;;;;;;6.80;3.07;;;23.50;42.80;;;;;;5002145;28;20950;-48
2023/08/31 11:10:19;;;;;;;3.10;2.30;;;23.40;41.60;;;;;;4996294;28;20514;-47
2023/08/31 11:12:47;;;;;;;3.40;2.30;;;23.60;43.00;;;;;;5002337;28;20547;-46
2023/08/31 11:15:15;;;;;;;5.87;2.40;;;23.60;41.80;;;;;;5014929;28;20523;-45
2023/08/31 11:17:42;;;;;;;3.37;2.30;;;23.50;41.80;;;;;;5009626;28;20433;-47
2023/08/31 11:20:12;;;;;;;3.07;2.23;;;23.70;43.20;;;;;;5012514;28;20488;-48
2023/08/31 11:22:40;;;;;;;5.67;2.03;;;23.60;42.60;;;;;;5012009;28;20864;-45
2023/08/31 11:25:08;;;;;;;6.17;2.40;;;23.70;42.70;;;;;;5014213;28;20781;-46
2023/08/31 11:27:33;;;;;;;3.83;2.47;;;23.50;41.40;;;;;;5007180;28;22017;-50
2023/08/31 11:29:59;;;;;;;2.47;2.20;;;23.50;42.90;;;;;;5010960;28;20445;-46
2023/08/31 11:32:25;;;;;;;4.40;2.20;;;23.50;42.40;;;;;;5009585;28;20198;-49
2023/08/31 11:34:50;;;;;;;3.97;2.30;;;23.50;42.50;;;;;;5013803;28;20193;-46
2023/08/31 11:37:17;;;;;;;4.10;2.57;;;23.40;41.80;;;;;;5010088;28;20647;-46
2023/08/31 11:39:52;;;;;;;4.47;2.27;;;23.40;43.80;;;;;;5006813;28;20221;-45
2023/08/31 11:42:19;;;;;;;4.60;2.87;;;23.50;43.30;;;;;;5007466;28;20448;-46
2023/08/31 11:44:51;;;;;;;5.90;2.87;;;23.60;42.50;;;;;;5014063;28;20452;-45
2023/08/31 11:47:17;;;;;;;5.60;2.77;;;23.60;42.80;;;;;;5003110;28;20443;-46
2023/08/31 11:49:43;;;;;;;4.53;2.00;;;23.90;45.20;;;;;;5010652;28;20466;-45
2023/08/31 11:52:11;;;;;;;5.63;2.80;;;24.10;42.70;;;;;;4999725;28;20556;-51
2023/08/31 11:54:39;;;;;;;2.27;1.80;;;24.30;42.20;;;;;;5009746;28;20452;-46
2023/08/31 11:57:08;;;;;;;7.20;3.13;;;24.40;42.10;;;;;;5009197;28;20527;-48
2023/08/31 11:59:36;;;;;;;3.17;2.00;;;24.60;42.70;;;;;;5006423;28;20480;-45
2023/08/31 12:02:01;;;;;;;3.70;2.00;;;24.60;42.00;;;;;;5003854;28;20448;-49
2023/08/31 12:04:27;;;;;;;4.37;2.47;;;24.60;41.30;;;;;;5007653;28;20487;-46
2023/08/31 12:07:00;;;;;;;3.53;2.30;;;24.40;40.00;;;;;;5009432;28;20234;-45
2023/08/31 12:09:28;;;;;;;4.17;2.53;;;24.20;40.30;;;;;;4991848;28;20281;-46
2023/08/31 12:11:53;;;;;;;2.93;2.63;;;24.00;40.50;;;;;;5012050;28;20430;-48
2023/08/31 12:14:21;;;;;;;4.00;2.33;;;24.20;41.40;;;;;;5008081;28;20966;-45
2023/08/31 12:16:46;;;;;;;11.13;2.30;;;24.40;41.80;;;;;;5003003;28;20201;-46
2023/08/31 12:19:12;;;;;;;4.90;2.20;;;24.30;40.60;;;;;;5003114;28;20995;-49
2023/08/31 12:21:38;;;;;;;2.70;2.33;;;24.30;41.10;;;;;;5009169;28;20205;-46
2023/08/31 12:24:05;;;;;;;5.60;2.43;;;24.40;40.50;;;;;;5005170;28;20218;-45
2023/08/31 12:26:31;;;;;;;4.10;2.20;;;24.50;40.90;;;;;;5004428;28;20194;-45
2023/08/31 12:28:57;;;;;;;3.37;2.13;;;24.60;41.70;;;;;;4997602;28;20948;-47
2023/08/31 12:31:23;;;;;;;4.70;2.00;;;24.60;41.40;;;;;;4998478;28;20256;-45
2023/08/31 12:33:49;;;;;;;4.93;2.67;;;24.40;41.00;;;;;;5000973;28;20898;-47
2023/08/31 12:36:14;;;;;;;3.70;2.57;;;24.50;41.20;;;;;;5008170;28;20195;-48
2023/08/31 12:38:40;;;;;;;2.77;2.20;;;24.20;41.20;;;;;;5013956;28;20317;-45
2023/08/31 12:41:06;;;;;;;3.97;2.00;;;24.30;41.90;;;;;;4998273;28;20202;-45
2023/08/31 12:43:32;;;;;;;6.90;3.17;;;24.20;41.50;;;;;;5011897;28;20425;-45
2023/08/31 12:45:58;;;;;;;4.33;2.30;;;24.30;41.50;;;;;;5011879;28;20203;-45
2023/08/31 12:48:24;;;;;;;3.90;2.40;;;24.50;41.80;;;;;;5013836;28;20194;-46
2023/08/31 12:50:49;;;;;;;4.37;2.53;;;24.70;40.40;;;;;;5013775;28;20441;-46